createdAt,value
2022-10-17T00:00:07.285Z,14.56
2022-10-17T00:01:07.313Z,14.58
2022-10-17T00:02:07.257Z,14.56
2022-10-17T00:03:07.271Z,14.55
2022-10-17T00:04:07.262Z,14.59
2022-10-17T00:05:07.228Z,14.59
2022-10-17T00:06:07.230Z,14.61
2022-10-17T00:07:07.222Z,14.59
2022-10-17T00:08:07.196Z,14.59
2022-10-17T00:09:07.209Z,14.53
2022-10-17T00:10:07.178Z,14.56
2022-10-17T00:11:07.160Z,14.55
2022-10-17T00:12:07.156Z,14.52
2022-10-17T00:13:07.140Z,14.53
2022-10-17T00:14:07.135Z,14.59
2022-10-17T00:15:07.154Z,14.55
2022-10-17T00:16:07.109Z,14.59
2022-10-17T00:17:07.130Z,14.63
2022-10-17T00:18:07.089Z,14.46
2022-10-17T00:19:07.073Z,14.59
2022-10-17T00:20:07.066Z,14.58
2022-10-17T00:21:07.052Z,14.51
2022-10-17T00:22:07.065Z,14.48
2022-10-17T00:23:07.027Z,14.59
2022-10-17T00:24:07.023Z,14.61
2022-10-17T00:25:07.036Z,14.53
2022-10-17T00:26:06.999Z,14.59
2022-10-17T00:27:06.986Z,14.53
2022-10-17T00:28:06.997Z,14.64
2022-10-17T00:29:07.053Z,14.63
2022-10-17T00:30:06.978Z,14.63
2022-10-17T00:31:06.970Z,14.53
2022-10-17T00:32:06.932Z,14.59
2022-10-17T00:33:06.919Z,14.46
2022-10-17T00:34:06.928Z,14.48
2022-10-17T00:35:06.898Z,14.58
2022-10-17T00:36:06.889Z,14.55
2022-10-17T00:37:06.874Z,14.59
2022-10-17T00:38:06.865Z,14.52
2022-10-17T00:39:06.876Z,14.59
2022-10-17T00:40:06.873Z,14.61
2022-10-17T00:41:06.830Z,14.59
2022-10-17T00:42:06.826Z,14.59
2022-10-17T00:43:06.813Z,14.64
2022-10-17T00:44:06.831Z,14.59
2022-10-17T00:45:06.792Z,14.59
2022-10-17T00:46:06.780Z,14.56
2022-10-17T00:47:06.781Z,14.63
2022-10-17T00:48:06.762Z,14.53
2022-10-17T00:49:06.768Z,14.55
2022-10-17T00:50:06.799Z,14.52
2022-10-17T00:51:06.753Z,14.55
2022-10-17T00:52:06.755Z,14.59
2022-10-17T00:53:06.707Z,14.61
2022-10-17T00:54:06.714Z,14.49
2022-10-17T00:55:06.680Z,14.52
2022-10-17T00:56:06.692Z,14.48
2022-10-17T00:57:06.662Z,14.63
2022-10-17T00:58:06.648Z,14.55
2022-10-17T01:00:06.631Z,14.56
2022-10-17T01:01:06.672Z,14.58
2022-10-17T01:02:06.603Z,14.61
2022-10-17T01:03:06.615Z,14.53
2022-10-17T01:04:06.583Z,14.53
2022-10-17T01:05:06.574Z,14.58
2022-10-17T01:06:06.579Z,14.59
2022-10-17T01:07:06.547Z,14.59
2022-10-17T01:08:06.563Z,14.56
2022-10-17T01:09:06.523Z,14.61
2022-10-17T01:10:06.532Z,14.48
2022-10-17T01:11:06.506Z,14.61
2022-10-17T01:12:06.498Z,14.55
2022-10-17T01:13:06.501Z,14.59
2022-10-17T01:14:06.470Z,14.55
2022-10-17T01:15:06.456Z,14.53
2022-10-17T01:16:06.452Z,14.52
2022-10-17T01:17:06.439Z,14.59
2022-10-17T01:18:06.449Z,14.55
2022-10-17T01:19:06.435Z,14.55
2022-10-17T01:20:06.409Z,14.53
2022-10-17T01:21:06.393Z,14.48
2022-10-17T01:22:06.381Z,14.53
2022-10-17T01:23:06.391Z,14.53
2022-10-17T01:24:06.365Z,14.58
2022-10-17T01:25:06.370Z,14.48
2022-10-17T01:26:06.339Z,14.59
2022-10-17T01:27:06.327Z,14.48
2022-10-17T01:28:06.322Z,14.58
2022-10-17T01:29:06.307Z,14.53
2022-10-17T01:30:06.329Z,14.49
2022-10-17T01:31:06.284Z,14.53
2022-10-17T01:32:06.274Z,14.51
2022-10-17T01:33:06.263Z,14.51
2022-10-17T01:34:06.254Z,14.58
2022-10-17T01:35:06.259Z,14.58
2022-10-17T01:36:06.256Z,14.53
2022-10-17T01:37:06.219Z,14.58
2022-10-17T01:38:06.209Z,14.53
2022-10-17T01:39:06.198Z,14.51
2022-10-17T01:40:06.190Z,14.59
2022-10-17T01:41:06.196Z,14.52
2022-10-17T01:42:06.162Z,14.52
2022-10-17T01:43:06.155Z,14.48
2022-10-17T01:44:06.140Z,14.49
2022-10-17T01:45:06.136Z,14.45
2022-10-17T01:46:06.146Z,14.48
2022-10-17T01:47:06.114Z,14.48
2022-10-17T01:48:06.101Z,14.48
2022-10-17T01:49:06.086Z,14.44
2022-10-17T01:50:06.081Z,14.52
2022-10-17T01:51:06.112Z,14.48
2022-10-17T01:52:06.058Z,14.44
2022-10-17T01:53:06.048Z,14.46
2022-10-17T01:54:06.032Z,14.48
2022-10-17T01:55:06.018Z,14.49
2022-10-17T01:56:06.036Z,14.45
2022-10-17T01:57:06.005Z,14.41
2022-10-17T01:58:05.993Z,14.41
2022-10-17T01:59:05.998Z,14.38
2022-10-17T02:00:05.973Z,14.37
2022-10-17T02:01:06.008Z,14.36
2022-10-17T02:02:05.969Z,14.34
2022-10-17T02:03:05.932Z,14.41
2022-10-17T02:04:05.921Z,14.37
2022-10-17T02:05:05.914Z,14.31
2022-10-17T02:06:05.903Z,14.44
2022-10-17T02:07:05.943Z,14.48
2022-10-17T02:08:05.879Z,14.33
2022-10-17T02:09:05.871Z,14.33
2022-10-17T02:10:05.859Z,14.44
2022-10-17T02:11:05.853Z,14.34
2022-10-17T02:12:05.836Z,14.34
2022-10-17T02:13:05.846Z,14.37
2022-10-17T02:14:05.883Z,14.31
2022-10-17T02:15:05.803Z,14.33
2022-10-17T02:16:05.795Z,14.33
2022-10-17T02:17:05.781Z,14.28
2022-10-17T02:18:05.767Z,14.30
2022-10-17T02:19:05.780Z,14.28
2022-10-17T02:20:05.771Z,14.34
2022-10-17T02:21:05.735Z,14.37
2022-10-17T02:22:05.727Z,14.22
2022-10-17T02:23:05.776Z,14.21
2022-10-17T02:24:05.731Z,14.28
2022-10-17T02:25:05.694Z,14.22
2022-10-17T02:26:05.682Z,14.23
2022-10-17T02:27:05.682Z,14.30
2022-10-17T02:28:05.661Z,14.22
2022-10-17T02:29:05.719Z,14.23
2022-10-17T02:30:05.661Z,14.27
2022-10-17T02:31:05.625Z,14.23
2022-10-17T02:32:05.620Z,14.16
2022-10-17T02:33:05.602Z,14.18
2022-10-17T02:34:05.614Z,14.19
2022-10-17T02:35:05.608Z,14.09
2022-10-17T02:36:05.572Z,14.16
2022-10-17T02:37:05.562Z,14.21
2022-10-17T02:38:05.550Z,14.13
2022-10-17T02:39:05.556Z,14.16
2022-10-17T02:40:05.570Z,14.16
2022-10-17T02:41:05.520Z,14.16
2022-10-17T02:42:05.531Z,14.11
2022-10-17T02:43:05.492Z,14.11
2022-10-17T02:44:05.489Z,14.09
2022-10-17T02:45:05.472Z,14.12
2022-10-17T02:46:05.486Z,14.09
2022-10-17T02:47:05.455Z,14.08
2022-10-17T02:48:05.441Z,14.13
2022-10-17T02:49:05.431Z,14.08
2022-10-17T02:50:05.444Z,14.11
2022-10-17T02:51:05.410Z,14.03
2022-10-17T02:52:05.401Z,14.08
2022-10-17T02:53:05.384Z,14.03
2022-10-17T02:54:05.381Z,14.08
2022-10-17T02:55:05.409Z,14.09
2022-10-17T02:56:05.375Z,14.04
2022-10-17T02:57:05.343Z,14.04
2022-10-17T02:58:05.329Z,14.03
2022-10-17T02:59:05.325Z,14.05
2022-10-17T03:00:05.336Z,14.09
2022-10-17T03:01:05.389Z,14.12
2022-10-17T03:02:05.291Z,14.05
2022-10-17T03:03:05.279Z,14.04
2022-10-17T03:04:05.273Z,14.08
2022-10-17T03:05:05.280Z,14.03
2022-10-17T03:06:05.246Z,14.05
2022-10-17T03:07:05.242Z,14.05
2022-10-17T03:08:05.227Z,13.97
2022-10-17T03:09:05.221Z,14.08
2022-10-17T03:10:05.246Z,14.05
2022-10-17T03:11:05.247Z,14.11
2022-10-17T03:12:05.183Z,14.08
2022-10-17T03:13:05.173Z,14.01
2022-10-17T03:14:05.159Z,14.12
2022-10-17T03:15:05.153Z,14.03
2022-10-17T03:16:05.162Z,14.01
2022-10-17T03:17:05.130Z,14.11
2022-10-17T03:18:05.119Z,14.09
2022-10-17T03:19:05.111Z,14.01
2022-10-17T03:20:05.122Z,14.03
2022-10-17T03:21:05.083Z,14.11
2022-10-17T03:22:05.080Z,14.05
2022-10-17T03:23:05.064Z,14.08
2022-10-17T03:24:05.051Z,14.09
2022-10-17T03:25:05.068Z,14.01
2022-10-17T03:26:05.032Z,14.04
2022-10-17T03:27:05.040Z,14.08
2022-10-17T03:28:05.011Z,14.12
2022-10-17T03:29:05.076Z,14.09
2022-10-17T03:30:04.982Z,14.11
2022-10-17T03:31:05.000Z,14.09
2022-10-17T03:32:04.962Z,14.03
2022-10-17T03:33:04.955Z,14.13
2022-10-17T03:34:04.945Z,14.05
2022-10-17T03:35:04.933Z,14.05
2022-10-17T03:36:04.944Z,14.08
2022-10-17T03:37:04.912Z,14.05
2022-10-17T03:38:04.925Z,14.04
2022-10-17T03:39:04.897Z,14.03
2022-10-17T03:40:04.879Z,14.05
2022-10-17T03:41:04.868Z,14.05
2022-10-17T03:42:04.853Z,14.09
2022-10-17T03:43:04.891Z,14.05
2022-10-17T03:44:04.831Z,13.98
2022-10-17T03:45:04.822Z,14.03
2022-10-17T03:46:04.852Z,14.05
2022-10-17T03:47:04.803Z,14.03
2022-10-17T03:48:04.817Z,14.03
2022-10-17T03:49:04.781Z,14.08
2022-10-17T03:50:04.767Z,14.08
2022-10-17T03:51:04.756Z,14.08
2022-10-17T03:52:04.746Z,14.09
2022-10-17T03:53:04.740Z,14.09
2022-10-17T03:54:04.747Z,14.05
2022-10-17T03:55:04.719Z,14.05
2022-10-17T03:56:04.708Z,14.05
2022-10-17T03:57:04.695Z,14.03
2022-10-17T03:58:04.686Z,14.12
2022-10-17T03:59:04.717Z,14.05
2022-10-17T04:00:04.663Z,14.08
2022-10-17T04:01:04.762Z,14.01
2022-10-17T04:02:04.645Z,14.01
2022-10-17T04:03:04.650Z,14.09
2022-10-17T04:04:04.617Z,14.05
2022-10-17T04:05:04.606Z,14.03
2022-10-17T04:06:04.599Z,14.08
2022-10-17T04:07:04.582Z,14.11
2022-10-17T04:08:04.951Z,14.05
2022-10-17T04:09:04.585Z,14.09
2022-10-17T04:10:04.553Z,14.09
2022-10-17T04:11:04.543Z,14.04
2022-10-17T04:12:04.530Z,14.11
2022-10-17T04:13:04.522Z,14.04
2022-10-17T04:14:04.536Z,14.04
2022-10-17T04:15:04.552Z,14.03
2022-10-17T04:16:04.492Z,14.05
2022-10-17T04:17:04.483Z,14.01
2022-10-17T04:19:04.453Z,14.11
2022-10-17T04:20:04.465Z,14.08
2022-10-17T04:21:04.430Z,14.05
2022-10-17T04:22:04.420Z,14.01
2022-10-17T04:23:04.414Z,14.08
2022-10-17T04:24:04.404Z,13.96
2022-10-17T04:25:04.409Z,13.94
2022-10-17T04:26:04.383Z,14.05
2022-10-17T04:27:04.376Z,14.03
2022-10-17T04:28:04.363Z,13.98
2022-10-17T04:29:04.353Z,13.98
2022-10-17T04:30:04.361Z,14.08
2022-10-17T04:31:04.363Z,13.91
2022-10-17T04:32:04.310Z,14.00
2022-10-17T04:33:04.300Z,13.93
2022-10-17T04:34:04.290Z,13.96
2022-10-17T04:35:04.317Z,14.03
2022-10-17T04:36:04.272Z,13.91
2022-10-17T04:37:04.261Z,13.98
2022-10-17T04:38:04.257Z,13.96
2022-10-17T04:39:04.354Z,13.96
2022-10-17T04:40:04.224Z,13.93
2022-10-17T04:41:04.224Z,14.00
2022-10-17T04:42:04.205Z,13.97
2022-10-17T04:43:04.194Z,13.97
2022-10-17T04:44:04.205Z,13.90
2022-10-17T04:45:04.176Z,13.88
2022-10-17T04:46:04.157Z,14.00
2022-10-17T04:47:04.180Z,13.90
2022-10-17T04:48:04.137Z,13.93
2022-10-17T04:49:04.162Z,13.94
2022-10-17T04:50:04.118Z,13.90
2022-10-17T04:51:04.110Z,13.90
2022-10-17T04:52:04.094Z,13.88
2022-10-17T04:53:04.086Z,13.91
2022-10-17T04:54:04.097Z,13.93
2022-10-17T04:55:04.065Z,13.88
2022-10-17T04:56:04.052Z,13.90
2022-10-17T04:57:04.042Z,13.88
2022-10-17T04:58:04.030Z,13.86
2022-10-17T04:59:04.039Z,13.88
2022-10-17T05:00:04.095Z,13.90
2022-10-17T05:01:04.160Z,13.94
2022-10-17T05:02:03.984Z,13.90
2022-10-17T05:03:04.022Z,13.93
2022-10-17T05:04:03.987Z,13.94
2022-10-17T05:05:03.957Z,13.93
2022-10-17T05:06:03.985Z,13.88
2022-10-17T05:07:03.935Z,13.90
2022-10-17T05:08:03.923Z,13.90
2022-10-17T05:09:03.911Z,13.85
2022-10-17T05:10:03.904Z,13.85
2022-10-17T05:11:03.902Z,13.86
2022-10-17T05:12:06.659Z,13.90
2022-10-17T05:13:04.868Z,13.86
2022-10-17T05:14:03.868Z,13.94
2022-10-17T05:15:03.845Z,13.85
2022-10-17T05:16:03.857Z,13.86
2022-10-17T05:17:03.852Z,13.85
2022-10-17T05:18:03.820Z,13.88
2022-10-17T05:19:03.824Z,13.79
2022-10-17T05:20:03.796Z,13.79
2022-10-17T05:21:03.799Z,13.90
2022-10-17T05:22:03.771Z,13.86
2022-10-17T05:23:03.793Z,13.85
2022-10-17T05:24:03.752Z,13.86
2022-10-17T05:25:03.741Z,13.83
2022-10-17T05:26:03.734Z,13.85
2022-10-17T05:27:03.721Z,13.85
2022-10-17T05:28:03.743Z,13.83
2022-10-17T05:29:03.735Z,13.78
2022-10-17T05:30:03.685Z,13.83
2022-10-17T05:31:03.705Z,13.83
2022-10-17T05:32:03.826Z,13.75
2022-10-17T05:33:03.667Z,13.85
2022-10-17T05:34:03.645Z,13.79
2022-10-17T05:35:03.656Z,13.83
2022-10-17T05:36:03.646Z,13.83
2022-10-17T05:37:03.610Z,13.82
2022-10-17T05:38:03.602Z,13.83
2022-10-17T05:39:03.586Z,13.79
2022-10-17T05:40:03.584Z,13.79
2022-10-17T05:41:03.599Z,13.83
2022-10-17T05:42:03.553Z,13.78
2022-10-17T05:43:03.545Z,13.83
2022-10-17T05:44:05.597Z,13.79
2022-10-17T05:45:03.524Z,13.76
2022-10-17T05:46:03.516Z,13.82
2022-10-17T05:47:03.525Z,13.76
2022-10-17T05:48:03.497Z,13.76
2022-10-17T05:49:14.688Z,13.76
2022-10-17T05:50:04.465Z,13.75
2022-10-17T05:51:03.484Z,13.76
2022-10-17T05:52:03.471Z,13.79
2022-10-17T05:53:03.441Z,13.85
2022-10-17T05:54:03.422Z,13.78
2022-10-17T05:55:03.420Z,13.76
2022-10-17T05:56:03.403Z,13.75
2022-10-17T05:57:03.412Z,13.72
2022-10-17T05:58:03.383Z,13.83
2022-10-17T05:59:03.370Z,13.78
2022-10-17T06:00:03.383Z,13.72
2022-10-17T06:01:03.348Z,13.79
2022-10-17T06:02:03.398Z,13.76
2022-10-17T06:03:03.328Z,13.78
2022-10-17T06:04:03.311Z,13.76
2022-10-17T06:05:03.331Z,13.83
2022-10-17T06:06:03.293Z,13.75
2022-10-17T06:07:03.307Z,13.79
2022-10-17T06:08:03.286Z,13.82
2022-10-17T06:09:03.270Z,13.80
2022-10-17T06:10:03.284Z,13.79
2022-10-17T06:11:06.125Z,13.79
2022-10-17T06:12:04.229Z,13.78
2022-10-17T06:13:03.242Z,13.83
2022-10-17T06:14:03.206Z,13.76
2022-10-17T06:15:03.241Z,13.82
2022-10-17T06:16:03.190Z,13.75
2022-10-17T06:17:03.177Z,13.80
2022-10-17T06:18:03.166Z,13.72
2022-10-17T06:19:03.158Z,13.82
2022-10-17T06:20:03.143Z,13.88
2022-10-17T06:21:03.157Z,13.78
2022-10-17T06:22:03.128Z,13.82
2022-10-17T06:23:03.165Z,13.82
2022-10-17T06:24:03.101Z,13.83
2022-10-17T06:25:03.088Z,13.83
2022-10-17T06:26:03.093Z,13.79
2022-10-17T06:27:04.325Z,13.85
2022-10-17T06:28:03.059Z,13.83
2022-10-17T06:29:03.127Z,13.90
2022-10-17T06:30:03.038Z,13.90
2022-10-17T06:31:03.046Z,13.86
2022-10-17T06:32:03.013Z,13.88
2022-10-17T06:33:03.011Z,13.93
2022-10-17T06:34:03.016Z,13.86
2022-10-17T06:35:02.983Z,13.86
2022-10-17T06:36:02.992Z,13.91
2022-10-17T06:37:02.964Z,13.96
2022-10-17T06:38:02.947Z,13.93
2022-10-17T06:39:03.000Z,13.85
2022-10-17T06:40:02.926Z,13.90
2022-10-17T06:41:02.918Z,13.96
2022-10-17T06:42:02.911Z,13.96
2022-10-17T06:43:02.895Z,13.97
2022-10-17T06:44:02.884Z,13.97
2022-10-17T06:45:02.908Z,14.01
2022-10-17T06:46:02.870Z,14.05
2022-10-17T06:47:02.854Z,14.05
2022-10-17T06:48:02.837Z,14.00
2022-10-17T06:49:02.835Z,14.01
2022-10-17T06:50:02.840Z,14.01
2022-10-17T06:51:02.808Z,13.98
2022-10-17T06:52:02.793Z,14.03
2022-10-17T06:53:02.787Z,14.05
2022-10-17T06:54:02.777Z,14.08
2022-10-17T06:56:02.757Z,14.03
2022-10-17T06:57:02.739Z,14.05
2022-10-17T06:58:02.766Z,14.13
2022-10-17T06:59:02.749Z,14.08
2022-10-17T07:00:02.713Z,14.09
2022-10-17T07:01:02.913Z,14.03
2022-10-17T07:02:02.693Z,14.01
2022-10-17T07:03:02.679Z,14.22
2022-10-17T07:04:02.673Z,14.13
2022-10-17T07:05:02.702Z,14.15
2022-10-17T07:06:02.666Z,14.18
2022-10-17T07:07:02.634Z,14.21
2022-10-17T07:08:02.619Z,14.21
2022-10-17T07:09:02.610Z,14.15
2022-10-17T07:10:02.604Z,14.12
2022-10-17T07:11:02.642Z,14.26
2022-10-17T07:12:02.583Z,14.18
2022-10-17T07:13:02.574Z,14.22
2022-10-17T07:14:02.567Z,14.22
2022-10-17T07:15:02.552Z,14.26
2022-10-17T07:16:02.596Z,14.33
2022-10-17T07:17:02.529Z,14.34
2022-10-17T07:18:02.510Z,14.33
2022-10-17T07:19:02.498Z,14.33
2022-10-17T07:20:02.492Z,14.26
2022-10-17T07:21:02.481Z,14.28
2022-10-17T07:22:02.486Z,14.31
2022-10-17T07:23:02.457Z,14.36
2022-10-17T07:24:02.447Z,14.33
2022-10-17T07:25:02.433Z,14.45
2022-10-17T07:26:02.449Z,14.44
2022-10-17T07:27:02.431Z,14.34
2022-10-17T07:28:02.407Z,14.45
2022-10-17T07:29:02.474Z,14.40
2022-10-17T07:30:02.384Z,14.41
2022-10-17T07:31:02.387Z,14.48
2022-10-17T07:32:02.362Z,14.46
2022-10-17T07:33:02.348Z,14.44
2022-10-17T07:34:02.342Z,14.46
2022-10-17T07:35:02.324Z,14.53
2022-10-17T07:36:02.335Z,14.52
2022-10-17T07:37:02.303Z,14.52
2022-10-17T07:38:02.318Z,14.59
2022-10-17T07:39:02.283Z,14.59
2022-10-17T07:40:02.273Z,14.55
2022-10-17T07:41:02.263Z,14.58
2022-10-17T07:42:02.247Z,14.51
2022-10-17T07:43:02.277Z,14.66
2022-10-17T07:44:02.231Z,14.66
2022-10-17T07:45:02.221Z,14.64
2022-10-17T07:46:02.213Z,14.63
2022-10-17T07:47:02.191Z,14.64
2022-10-17T07:48:02.210Z,14.61
2022-10-17T07:49:02.175Z,14.61
2022-10-17T07:50:02.162Z,14.64
2022-10-17T07:51:02.173Z,14.73
2022-10-17T07:52:02.142Z,14.71
2022-10-17T07:53:02.131Z,14.73
2022-10-17T07:54:02.115Z,14.77
2022-10-17T07:55:02.111Z,14.85
2022-10-17T07:56:02.128Z,14.83
2022-10-17T07:57:02.086Z,14.82
2022-10-17T07:58:02.075Z,14.85
2022-10-17T07:59:05.131Z,14.79
2022-10-17T08:00:03.069Z,14.83
2022-10-17T08:02:02.055Z,14.96
2022-10-17T08:03:02.022Z,14.92
2022-10-17T08:04:02.022Z,14.86
2022-10-17T08:05:02.005Z,14.90
2022-10-17T08:06:01.998Z,14.99
2022-10-17T08:07:18.292Z,14.93
2022-10-17T08:08:02.975Z,15.03
2022-10-17T08:09:01.955Z,15.05
2022-10-17T08:10:02.052Z,15.05
2022-10-17T08:11:01.932Z,15.01
2022-10-17T08:12:01.942Z,15.11
2022-10-17T08:13:01.913Z,15.07
2022-10-17T08:14:01.898Z,15.15
2022-10-17T08:15:02.137Z,15.12
2022-10-17T08:16:01.885Z,15.08
2022-10-17T08:17:01.887Z,15.17
2022-10-17T08:18:01.866Z,15.19
2022-10-17T08:19:01.865Z,15.22
2022-10-17T08:20:01.839Z,15.17
2022-10-17T08:21:01.851Z,15.22
2022-10-17T08:22:01.833Z,15.23
2022-10-17T08:23:01.803Z,15.23
2022-10-17T08:24:01.792Z,15.23
2022-10-17T08:25:01.806Z,15.33
2022-10-17T08:26:01.770Z,15.27
2022-10-17T08:27:01.776Z,15.25
2022-10-17T08:28:01.786Z,15.27
2022-10-17T08:29:01.775Z,15.35
2022-10-17T08:30:01.760Z,15.29
2022-10-17T08:31:01.735Z,15.36
2022-10-17T08:32:03.687Z,15.32
2022-10-17T08:33:01.697Z,15.35
2022-10-17T08:34:01.715Z,15.30
2022-10-17T08:35:01.702Z,15.45
2022-10-17T08:36:01.664Z,15.41
2022-10-17T08:37:01.710Z,15.48
2022-10-17T08:38:01.643Z,15.44
2022-10-17T08:39:01.629Z,15.45
2022-10-17T08:40:01.621Z,15.44
2022-10-17T08:41:01.643Z,15.44
2022-10-17T08:42:01.601Z,15.48
2022-10-17T08:43:01.588Z,15.48
2022-10-17T08:44:01.585Z,15.54
2022-10-17T08:45:01.583Z,15.58
2022-10-17T08:46:01.585Z,15.54
2022-10-17T08:47:01.584Z,15.51
2022-10-17T08:48:01.549Z,15.56
2022-10-17T08:49:01.540Z,15.54
2022-10-17T08:50:01.515Z,15.60
2022-10-17T08:51:01.528Z,15.62
2022-10-17T08:52:01.515Z,15.62
2022-10-17T08:53:01.483Z,15.65
2022-10-17T08:54:01.466Z,15.63
2022-10-17T08:55:01.461Z,15.72
2022-10-17T08:56:01.472Z,15.73
2022-10-17T08:57:01.434Z,15.76
2022-10-17T08:58:01.445Z,15.73
2022-10-17T08:59:01.418Z,15.70
2022-10-17T09:00:01.417Z,15.78
2022-10-17T09:01:01.386Z,15.77
2022-10-17T09:02:01.381Z,15.81
2022-10-17T09:03:01.435Z,15.88
2022-10-17T09:04:01.361Z,15.78
2022-10-17T09:05:01.348Z,15.87
2022-10-17T09:06:01.337Z,15.83
2022-10-17T09:07:01.324Z,15.85
2022-10-17T09:08:01.346Z,15.90
2022-10-17T09:09:01.304Z,15.96
2022-10-17T09:10:01.303Z,15.98
2022-10-17T09:11:01.277Z,15.99
2022-10-17T09:12:01.272Z,15.95
2022-10-17T09:13:06.788Z,16.00
2022-10-17T09:14:02.245Z,16.03
2022-10-17T09:15:01.251Z,15.99
2022-10-17T09:16:01.230Z,16.03
2022-10-17T09:17:01.213Z,16.06
2022-10-17T09:18:01.239Z,16.03
2022-10-17T09:19:01.244Z,16.03
2022-10-17T09:20:01.182Z,16.13
2022-10-17T09:21:01.173Z,16.06
2022-10-17T09:22:01.160Z,16.18
2022-10-17T09:23:01.167Z,16.13
2022-10-17T09:24:08.824Z,16.21
2022-10-17T09:25:02.129Z,16.21
2022-10-17T09:26:01.123Z,16.17
2022-10-17T09:27:01.107Z,16.25
2022-10-17T09:28:01.109Z,16.28
2022-10-17T09:29:01.199Z,16.29
2022-10-17T09:30:01.077Z,16.33
2022-10-17T09:31:01.064Z,16.29
2022-10-17T09:32:01.067Z,16.33
2022-10-17T09:33:01.054Z,16.37
2022-10-17T09:34:01.058Z,16.34
2022-10-17T09:35:01.041Z,16.42
2022-10-17T09:36:01.011Z,16.39
2022-10-17T09:37:01.000Z,16.44
2022-10-17T09:38:01.186Z,16.46
2022-10-17T09:39:01.000Z,16.44
2022-10-17T09:40:00.970Z,16.49
2022-10-17T09:41:01.000Z,16.51
2022-10-17T09:42:00.945Z,16.49
2022-10-17T09:43:00.936Z,16.47
2022-10-17T09:44:00.953Z,16.51
2022-10-17T09:45:00.919Z,16.64
2022-10-17T09:46:00.910Z,16.52
2022-10-17T09:47:00.897Z,16.64
2022-10-17T09:48:01.816Z,16.61
2022-10-17T09:50:00.862Z,16.62
2022-10-17T09:51:14.750Z,16.70
2022-10-17T09:52:01.848Z,16.72
2022-10-17T09:53:00.825Z,16.64
2022-10-17T09:54:00.843Z,16.69
2022-10-17T09:55:00.810Z,16.67
2022-10-17T09:56:00.795Z,16.70
2022-10-17T09:57:00.780Z,16.73
2022-10-17T09:58:00.778Z,16.80
2022-10-17T09:59:00.766Z,16.72
2022-10-17T10:00:00.884Z,16.77
2022-10-17T10:01:00.817Z,16.84
2022-10-17T10:02:00.732Z,16.83
2022-10-17T10:03:00.726Z,16.88
2022-10-17T10:04:00.708Z,16.91
2022-10-17T10:05:05.414Z,16.95
2022-10-17T10:06:01.702Z,16.99
2022-10-17T10:07:00.704Z,16.97
2022-10-17T10:08:00.666Z,17.01
2022-10-17T10:09:00.655Z,17.04
2022-10-17T10:10:00.675Z,17.10
2022-10-17T10:11:00.630Z,17.17
2022-10-17T10:12:00.624Z,17.06
2022-10-17T10:13:00.616Z,17.13
2022-10-17T10:14:00.601Z,17.25
2022-10-17T10:15:00.642Z,17.24
2022-10-17T10:16:00.581Z,17.28
2022-10-17T10:17:00.567Z,17.27
2022-10-17T10:18:00.554Z,17.31
2022-10-17T10:19:02.656Z,17.34
2022-10-17T10:20:00.541Z,17.30
2022-10-17T10:21:00.544Z,17.41
2022-10-17T10:22:00.514Z,17.43
2022-10-17T10:23:00.523Z,17.47
2022-10-17T10:24:00.515Z,17.50
2022-10-17T10:25:00.488Z,17.50
2022-10-17T10:26:00.494Z,17.53
2022-10-17T10:27:00.462Z,17.71
2022-10-17T10:28:01.464Z,17.54
2022-10-17T10:29:00.575Z,17.73
2022-10-17T10:30:00.429Z,17.71
2022-10-17T10:31:00.436Z,17.88
2022-10-17T10:32:00.410Z,17.83
2022-10-17T10:33:00.419Z,17.86
2022-10-17T10:34:00.388Z,17.91
2022-10-17T10:35:00.381Z,17.97
2022-10-17T10:36:00.363Z,17.99
2022-10-17T10:37:00.351Z,18.05
2022-10-17T10:38:00.361Z,18.08
2022-10-17T10:39:02.563Z,18.17
2022-10-17T10:40:00.323Z,18.17
2022-10-17T10:41:00.304Z,18.26
2022-10-17T10:42:00.300Z,18.20
2022-10-17T10:43:05.184Z,18.24
2022-10-17T10:44:01.304Z,18.27
2022-10-17T10:45:00.293Z,18.39
2022-10-17T10:46:00.254Z,18.34
2022-10-17T10:47:00.243Z,18.38
2022-10-17T10:48:00.261Z,18.43
2022-10-17T10:49:00.276Z,18.46
2022-10-17T10:50:00.217Z,18.48
2022-10-17T10:51:00.199Z,18.57
2022-10-17T10:52:00.187Z,18.64
2022-10-17T10:53:00.177Z,18.71
2022-10-17T10:54:00.186Z,18.68
2022-10-17T10:55:00.181Z,18.83
2022-10-17T10:56:00.151Z,18.78
2022-10-17T10:57:00.156Z,18.96
2022-10-17T10:58:00.122Z,18.89
2022-10-17T10:59:00.135Z,18.83
2022-10-17T11:00:00.105Z,19.00
2022-10-17T11:01:00.174Z,19.05
2022-10-17T11:02:00.085Z,19.09
2022-10-17T11:03:01.908Z,19.16
2022-10-17T11:04:00.097Z,19.22
2022-10-17T11:05:00.051Z,19.27
2022-10-17T11:06:00.039Z,19.19
2022-10-17T11:07:00.035Z,19.35
2022-10-17T11:08:00.021Z,19.41
2022-10-17T11:09:00.008Z,19.45
2022-10-17T11:10:00.021Z,19.45
2022-10-17T11:11:00.006Z,19.57
2022-10-17T11:11:59.978Z,19.54
2022-10-17T11:12:59.970Z,19.70
2022-10-17T11:13:59.976Z,19.77
2022-10-17T11:14:59.944Z,19.72
2022-10-17T11:15:59.931Z,19.82
2022-10-17T11:16:59.928Z,19.90
2022-10-17T11:17:59.911Z,19.96
2022-10-17T11:18:59.916Z,20.07
2022-10-17T11:19:59.914Z,20.05
2022-10-17T11:20:59.884Z,20.14
2022-10-17T11:21:59.869Z,20.25
2022-10-17T11:22:59.860Z,20.19
2022-10-17T11:23:59.850Z,20.27
2022-10-17T11:24:59.866Z,20.41
2022-10-17T11:25:59.824Z,20.30
2022-10-17T11:26:59.839Z,20.42
2022-10-17T11:28:04.720Z,20.37
2022-10-17T11:29:00.868Z,20.53
2022-10-17T11:29:59.806Z,20.56
2022-10-17T11:31:01.421Z,20.61
2022-10-17T11:31:59.766Z,20.67
2022-10-17T11:32:59.754Z,20.75
2022-10-17T11:33:59.738Z,20.83
2022-10-17T11:34:59.746Z,20.83
2022-10-17T11:35:59.743Z,20.98
2022-10-17T11:36:59.707Z,20.95
2022-10-17T11:37:59.697Z,20.97
2022-10-17T11:38:59.695Z,21.16
2022-10-17T11:39:59.674Z,21.18
2022-10-17T11:40:59.692Z,21.25
2022-10-17T11:42:03.253Z,21.32
2022-10-17T11:42:59.668Z,21.30
2022-10-17T11:43:59.627Z,21.29
2022-10-17T11:44:59.624Z,21.38
2022-10-17T11:45:59.610Z,21.48
2022-10-17T11:46:59.619Z,21.48
2022-10-17T11:47:59.592Z,21.60
2022-10-17T11:48:59.575Z,21.65
2022-10-17T11:51:59.697Z,21.63
2022-10-17T11:52:02.138Z,21.85
2022-10-17T11:53:00.019Z,21.80
2022-10-17T11:53:59.523Z,21.85
2022-10-17T11:54:59.533Z,21.96
2022-10-17T11:55:59.500Z,21.96
2022-10-17T11:56:59.487Z,22.04
2022-10-17T11:57:59.477Z,22.11
2022-10-17T11:58:59.492Z,22.07
2022-10-17T11:59:59.483Z,22.09
2022-10-17T12:00:59.444Z,22.16
2022-10-17T12:01:59.461Z,22.21
2022-10-17T12:02:59.425Z,22.25
2022-10-17T12:03:59.442Z,22.30
2022-10-17T12:04:59.406Z,22.34
2022-10-17T12:05:59.422Z,22.34
2022-10-17T12:06:59.413Z,22.48
2022-10-17T12:07:59.376Z,22.48
2022-10-17T12:08:59.367Z,22.46
2022-10-17T12:09:59.458Z,22.56
2022-10-17T12:10:59.343Z,22.58
2022-10-17T12:11:59.332Z,22.64
2022-10-17T12:12:59.348Z,22.71
2022-10-17T12:14:01.573Z,22.68
2022-10-17T12:15:00.318Z,22.71
2022-10-17T12:15:59.289Z,22.81
2022-10-17T12:16:59.278Z,22.88
2022-10-17T12:17:59.283Z,22.85
2022-10-17T12:18:59.285Z,22.83
2022-10-17T12:19:59.250Z,23.04
2022-10-17T12:20:59.230Z,22.96
2022-10-17T12:21:59.222Z,23.03
2022-10-17T12:22:59.210Z,23.08
2022-10-17T12:23:59.299Z,23.07
2022-10-17T12:24:59.211Z,23.18
2022-10-17T12:26:01.591Z,23.21
2022-10-17T12:27:00.166Z,23.26
2022-10-17T12:27:59.175Z,23.28
2022-10-17T12:28:59.235Z,23.29
2022-10-17T12:29:59.165Z,23.33
2022-10-17T12:30:59.146Z,23.33
2022-10-17T12:31:59.112Z,23.39
2022-10-17T12:33:07.378Z,23.34
2022-10-17T12:34:00.105Z,23.48
2022-10-17T12:34:59.109Z,23.48
2022-10-17T12:35:59.073Z,23.55
2022-10-17T12:36:59.081Z,23.46
2022-10-17T12:37:59.447Z,23.51
2022-10-17T12:38:59.039Z,23.59
2022-10-17T12:39:59.035Z,23.61
2022-10-17T12:40:59.023Z,23.60
2022-10-17T12:41:59.030Z,23.66
2022-10-17T12:42:59.025Z,23.71
2022-10-17T12:43:58.983Z,23.71
2022-10-17T12:44:58.978Z,23.70
2022-10-17T12:45:58.962Z,23.59
2022-10-17T12:46:58.998Z,23.71
2022-10-17T12:47:58.969Z,23.74
2022-10-17T12:48:58.936Z,23.84
2022-10-17T12:49:58.924Z,23.84
2022-10-17T12:51:17.629Z,23.89
2022-10-17T12:51:59.903Z,23.98
2022-10-17T12:52:58.885Z,23.92
2022-10-17T12:53:58.896Z,23.91
2022-10-17T12:55:10.920Z,24.01
2022-10-17T12:55:59.867Z,24.04
2022-10-17T12:56:58.849Z,24.01
2022-10-17T12:57:58.852Z,24.04